createdAt,value
2023-05-19T00:00:57.651Z,97527.84
2023-05-19T00:03:27.004Z,97528.63
2023-05-19T00:05:55.628Z,97524.19
2023-05-19T00:08:24.874Z,97523.53
2023-05-19T00:10:54.528Z,97493.31
2023-05-19T00:13:23.038Z,97513.13
2023-05-19T00:15:52.365Z,97512.34
2023-05-19T00:18:20.649Z,97505.22
2023-05-19T00:20:48.268Z,97507.53
2023-05-19T00:23:15.788Z,97511.00
2023-05-19T00:25:43.322Z,97518.47
2023-05-19T00:28:12.452Z,97512.81
2023-05-19T00:30:40.020Z,97507.72
2023-05-19T00:33:07.652Z,97509.38
2023-05-19T00:35:35.349Z,97508.72
2023-05-19T00:38:02.935Z,97506.56
2023-05-19T00:40:31.149Z,97506.41
2023-05-19T00:42:58.839Z,97504.59
2023-05-19T00:45:27.777Z,97499.31
2023-05-19T00:47:56.900Z,97500.31
2023-05-19T00:50:25.119Z,97493.88
2023-05-19T00:52:52.671Z,97483.13
2023-05-19T00:55:21.296Z,97494.03
2023-05-19T00:57:50.074Z,97491.41
2023-05-19T01:00:18.290Z,97488.44
2023-05-19T01:02:48.081Z,97487.28
2023-05-19T01:05:15.659Z,97490.41
2023-05-19T01:07:43.426Z,97492.22
2023-05-19T01:10:11.665Z,97486.28
2023-05-19T01:12:39.559Z,97487.47
2023-05-19T01:15:08.209Z,97486.81
2023-05-19T01:17:40.344Z,97484.50
2023-05-19T01:20:16.108Z,97486.97
2023-05-19T01:22:59.311Z,97488.28
2023-05-19T01:25:43.485Z,97490.63
2023-05-19T01:28:26.192Z,97480.19
2023-05-19T01:30:56.204Z,97486.16
2023-05-19T01:33:24.877Z,97492.28
2023-05-19T01:35:52.924Z,97482.19
2023-05-19T01:38:21.376Z,97483.69
2023-05-19T01:40:50.880Z,97492.78
2023-05-19T01:43:20.887Z,97485.53
2023-05-19T01:45:49.060Z,97490.97
2023-05-19T01:48:18.569Z,97480.88
2023-05-19T01:50:50.105Z,97481.88
2023-05-19T01:53:17.954Z,97481.56
2023-05-19T01:55:48.096Z,97449.03
2023-05-19T01:58:19.851Z,97473.00
2023-05-19T02:00:53.625Z,97474.47
2023-05-19T02:03:43.720Z,97482.41
2023-05-19T02:06:20.404Z,97472.31
2023-05-19T02:08:53.302Z,97433.66
2023-05-19T02:11:26.327Z,97471.00
2023-05-19T02:13:57.264Z,97467.38
2023-05-19T02:16:29.472Z,97470.50
2023-05-19T02:18:59.543Z,97467.19
2023-05-19T02:21:27.206Z,97471.00
2023-05-19T02:23:54.766Z,97464.00
2023-05-19T02:26:22.806Z,97465.84
2023-05-19T02:28:50.350Z,97457.56
2023-05-19T02:31:17.904Z,97438.53
2023-05-19T02:33:45.472Z,97422.84
2023-05-19T02:36:14.809Z,97456.88
2023-05-19T02:38:43.230Z,97462.94
2023-05-19T02:41:10.792Z,97464.91
2023-05-19T02:43:38.320Z,97468.72
2023-05-19T02:46:05.995Z,97467.56
2023-05-19T02:48:33.525Z,97466.25
2023-05-19T02:51:01.075Z,97455.56
2023-05-19T02:53:29.962Z,97466.97
2023-05-19T02:55:57.629Z,97456.41
2023-05-19T02:58:25.164Z,97457.91
2023-05-19T03:00:52.706Z,97456.94
2023-05-19T03:03:20.600Z,97457.09
2023-05-19T03:05:48.347Z,97455.16
2023-05-19T03:08:15.856Z,97452.19
2023-05-19T03:10:44.829Z,97455.50
2023-05-19T03:13:12.367Z,97419.44
2023-05-19T03:15:39.943Z,97448.38
2023-05-19T03:18:07.791Z,97451.66
2023-05-19T03:20:35.393Z,97453.50
2023-05-19T03:23:02.955Z,97445.59
2023-05-19T03:25:31.580Z,97453.84
2023-05-19T03:28:00.687Z,97456.13
2023-05-19T03:30:28.333Z,97464.72
2023-05-19T03:32:56.106Z,97461.09
2023-05-19T03:35:23.842Z,97458.28
2023-05-19T03:37:51.551Z,97458.59
2023-05-19T03:40:19.217Z,97462.41
2023-05-19T03:42:46.939Z,97456.97
2023-05-19T03:45:16.081Z,97454.47
2023-05-19T03:47:43.743Z,97459.09
2023-05-19T03:50:11.903Z,97457.44
2023-05-19T03:52:39.815Z,97435.66
2023-05-19T03:55:08.639Z,97460.94
2023-05-19T03:57:36.530Z,97466.53
2023-05-19T04:00:05.609Z,97470.31
2023-05-19T04:02:34.683Z,97461.09
2023-05-19T04:05:04.920Z,97473.31
2023-05-19T04:07:32.637Z,97471.50
2023-05-19T04:10:00.583Z,97473.47
2023-05-19T04:12:28.336Z,97476.63
2023-05-19T04:14:56.103Z,97476.78
2023-05-19T04:17:26.382Z,97471.00
2023-05-19T04:19:55.550Z,97467.22
2023-05-19T04:22:23.341Z,97468.34
2023-05-19T04:24:52.996Z,97474.31
2023-05-19T04:27:22.054Z,97475.28
2023-05-19T04:29:50.012Z,97474.31
2023-05-19T04:32:18.531Z,97448.38
2023-05-19T04:34:46.290Z,97479.72
2023-05-19T04:37:16.238Z,97459.94
2023-05-19T04:39:45.385Z,97481.09
2023-05-19T04:42:13.350Z,97483.03
2023-05-19T04:44:42.070Z,97481.72
2023-05-19T04:47:10.360Z,97479.91
2023-05-19T04:49:39.584Z,97482.38
2023-05-19T04:52:10.860Z,97477.56
2023-05-19T04:54:41.963Z,97478.00
2023-05-19T04:57:10.474Z,97472.53
2023-05-19T04:59:39.049Z,97487.03
2023-05-19T05:02:07.085Z,97471.50
2023-05-19T05:04:34.814Z,97481.41
2023-05-19T05:07:02.501Z,97472.13
2023-05-19T05:09:30.184Z,97470.19
2023-05-19T05:11:59.854Z,97474.34
2023-05-19T05:14:28.526Z,97465.41
2023-05-19T05:16:57.041Z,97444.13
2023-05-19T05:19:25.337Z,97430.78
2023-05-19T05:21:53.644Z,97470.00
2023-05-19T05:24:21.843Z,97461.06
2023-05-19T05:26:50.008Z,97459.06
2023-05-19T05:29:19.038Z,97462.16
2023-05-19T05:31:46.693Z,97455.78
2023-05-19T05:34:14.633Z,97428.56
2023-05-19T05:36:42.280Z,97453.53
2023-05-19T05:39:10.057Z,97443.16
2023-05-19T05:41:37.734Z,97453.16
2023-05-19T05:44:05.983Z,97459.91
2023-05-19T05:46:35.205Z,97450.53
2023-05-19T05:49:03.502Z,97459.28
2023-05-19T05:51:32.927Z,97455.22
2023-05-19T05:54:01.429Z,97455.38
2023-05-19T05:56:29.595Z,97458.59
2023-05-19T05:58:57.270Z,97465.16
2023-05-19T06:01:24.907Z,97457.19
2023-05-19T06:03:53.758Z,97458.53
2023-05-19T06:06:21.494Z,97463.22
2023-05-19T06:08:49.066Z,97462.94
2023-05-19T06:11:16.878Z,97461.19
2023-05-19T06:13:44.462Z,97457.56
2023-05-19T06:16:12.124Z,97456.63
2023-05-19T06:18:40.200Z,97449.13
2023-05-19T06:21:10.316Z,97454.34
2023-05-19T06:23:37.961Z,97456.06
2023-05-19T06:26:05.812Z,97450.66
2023-05-19T06:28:33.659Z,97448.50
2023-05-19T06:31:01.368Z,97436.66
2023-05-19T06:33:29.385Z,97441.22
2023-05-19T06:35:57.277Z,97444.88
2023-05-19T06:38:26.574Z,97441.50
2023-05-19T06:40:54.141Z,97450.56
2023-05-19T06:43:21.686Z,97448.16
2023-05-19T06:45:49.264Z,97459.22
2023-05-19T06:48:16.879Z,97447.50
2023-05-19T06:50:44.507Z,97460.69
2023-05-19T06:53:13.455Z,97461.13
2023-05-19T06:55:54.793Z,97459.97
2023-05-19T06:58:26.679Z,97455.00
2023-05-19T07:00:54.305Z,97455.56
2023-05-19T07:03:21.968Z,97455.81
2023-05-19T07:05:49.805Z,97446.97
2023-05-19T07:08:17.576Z,97442.47
2023-05-19T07:10:46.472Z,97442.91
2023-05-19T07:13:14.019Z,97433.56
2023-05-19T07:15:41.618Z,97433.66
2023-05-19T07:18:09.188Z,97430.19
2023-05-19T07:20:36.863Z,97434.72
2023-05-19T07:23:05.303Z,97436.72
2023-05-19T07:25:33.299Z,97439.59
2023-05-19T07:28:02.194Z,97430.25
2023-05-19T07:30:30.286Z,97424.09
2023-05-19T07:32:57.945Z,97433.16
2023-05-19T07:35:26.821Z,97433.94
2023-05-19T07:37:54.496Z,97437.56
2023-05-19T07:40:22.050Z,97429.25
2023-05-19T07:42:50.464Z,97421.09
2023-05-19T07:45:19.638Z,97419.00
2023-05-19T07:47:47.343Z,97419.41
2023-05-19T07:50:15.021Z,97414.78
2023-05-19T07:52:42.651Z,97425.16
2023-05-19T07:55:10.324Z,97397.69
2023-05-19T07:57:37.876Z,97417.56
2023-05-19T08:00:07.856Z,97415.69
2023-05-19T08:02:36.886Z,97409.47
2023-05-19T08:05:04.831Z,97408.41
2023-05-19T08:07:32.426Z,97410.22
2023-05-19T08:10:00.124Z,97418.44
2023-05-19T08:12:27.849Z,97388.72
2023-05-19T08:14:55.430Z,97406.94
2023-05-19T08:17:23.273Z,97402.63
2023-05-19T08:19:53.410Z,97403.06
2023-05-19T08:22:21.147Z,97405.38
2023-05-19T08:24:49.688Z,97396.31
2023-05-19T08:27:17.415Z,97401.44
2023-05-19T08:29:45.038Z,97408.22
2023-05-19T08:32:13.344Z,97409.59
2023-05-19T08:34:41.184Z,97396.50
2023-05-19T08:37:10.762Z,97379.91
2023-05-19T08:39:38.350Z,97405.91
2023-05-19T08:42:07.445Z,97392.56
2023-05-19T08:44:35.201Z,97397.13
2023-05-19T08:47:04.991Z,97384.75
2023-05-19T08:49:34.481Z,97367.28
2023-05-19T08:52:09.403Z,97378.72
2023-05-19T08:54:44.749Z,97382.91
2023-05-19T08:57:12.923Z,97382.72
2023-05-19T08:59:40.785Z,97374.22
2023-05-19T09:02:10.191Z,97372.31
2023-05-19T09:04:37.920Z,97373.13
2023-05-19T09:07:05.706Z,97366.81
2023-05-19T09:09:33.534Z,97354.66
2023-05-19T09:12:02.651Z,97368.50
2023-05-19T09:14:30.760Z,97369.13
2023-05-19T09:16:58.305Z,97363.34
2023-05-19T09:19:29.824Z,97361.81
2023-05-19T09:22:01.408Z,97358.31
2023-05-19T09:24:29.341Z,97348.84
2023-05-19T09:26:59.254Z,97344.16
2023-05-19T09:29:29.053Z,97347.47
2023-05-19T09:32:00.764Z,97345.91
2023-05-19T09:34:28.766Z,97346.00
2023-05-19T09:36:57.936Z,97339.69
2023-05-19T09:39:25.868Z,97340.78
2023-05-19T09:41:54.261Z,97345.75
2023-05-19T09:44:28.909Z,97335.75
2023-05-19T09:46:58.433Z,97345.09
2023-05-19T09:49:29.456Z,97332.84
2023-05-19T09:51:57.618Z,97336.75
2023-05-19T09:54:27.460Z,97337.59
2023-05-19T09:56:59.834Z,97327.06
2023-05-19T09:59:30.526Z,97333.28
2023-05-19T10:02:02.157Z,97319.22
2023-05-19T10:04:31.144Z,97328.78
2023-05-19T10:07:00.315Z,97321.59
2023-05-19T10:09:29.735Z,97326.16
2023-05-19T10:11:58.541Z,97320.16
2023-05-19T10:14:27.525Z,97313.66
2023-05-19T10:16:56.636Z,97312.19
2023-05-19T10:19:26.595Z,97287.63
2023-05-19T10:21:54.901Z,97313.81
2023-05-19T10:24:22.768Z,97306.44
2023-05-19T10:26:52.842Z,97303.53
2023-05-19T10:29:22.919Z,97307.44
2023-05-19T10:31:51.895Z,97304.56
2023-05-19T10:34:40.608Z,97287.16
2023-05-19T10:37:14.834Z,97319.09
2023-05-19T10:39:44.784Z,97307.94
2023-05-19T10:42:16.689Z,97306.97
2023-05-19T10:44:54.766Z,97304.56
2023-05-19T10:47:24.685Z,97292.31
2023-05-19T10:49:54.858Z,97294.41
2023-05-19T10:52:23.455Z,97283.22
2023-05-19T10:54:51.400Z,97293.50
2023-05-19T10:57:19.300Z,97290.94
2023-05-19T10:59:47.193Z,97290.44
2023-05-19T11:02:37.527Z,97287.84
2023-05-19T11:05:10.722Z,97291.09
2023-05-19T11:07:38.398Z,97289.31
2023-05-19T11:10:09.773Z,97285.38
2023-05-19T11:12:44.624Z,97280.69
2023-05-19T11:15:13.688Z,97294.84
2023-05-19T11:17:42.268Z,97284.91
2023-05-19T11:20:22.559Z,97280.34
2023-05-19T11:23:06.306Z,97282.91
2023-05-19T11:25:44.899Z,97277.06
2023-05-19T11:28:13.742Z,97279.63
2023-05-19T11:30:43.776Z,97268.91
2023-05-19T11:33:11.602Z,97269.97
2023-05-19T11:35:41.125Z,97265.28
2023-05-19T11:38:08.818Z,97262.38
2023-05-19T11:40:36.748Z,97271.50
2023-05-19T11:43:04.324Z,97272.78
2023-05-19T11:45:33.138Z,97264.72
2023-05-19T11:48:03.031Z,97268.25
2023-05-19T11:50:31.820Z,97266.59
2023-05-19T11:53:01.582Z,97270.34
2023-05-19T11:55:30.164Z,97261.53
2023-05-19T12:00:31.024Z,97277.06
2023-05-19T12:02:59.111Z,97278.72
2023-05-19T12:05:28.188Z,97272.69
2023-05-19T12:07:55.942Z,97280.34
2023-05-19T12:10:26.022Z,97272.19
2023-05-19T12:12:54.900Z,97269.28
2023-05-19T12:15:22.930Z,97267.75
2023-05-19T12:17:51.161Z,97270.06
2023-05-19T12:20:19.302Z,97266.13
2023-05-19T12:22:47.248Z,97266.22
2023-05-19T12:25:15.213Z,97262.13
2023-05-19T12:27:45.060Z,97250.09
2023-05-19T12:30:13.631Z,97260.59
2023-05-19T12:32:41.338Z,97254.69
2023-05-19T12:35:09.716Z,97255.41
2023-05-19T12:37:38.068Z,97258.75
2023-05-19T12:40:07.117Z,97249.53
2023-05-19T12:42:35.721Z,97254.22
2023-05-19T12:45:05.797Z,97244.63
2023-05-19T12:50:03.565Z,97230.53
2023-05-19T12:52:32.582Z,97238.34
2023-05-19T12:55:01.199Z,97219.66
2023-05-19T12:57:31.534Z,97244.78
2023-05-19T13:00:06.914Z,97231.81
2023-05-19T13:02:35.520Z,97231.31
2023-05-19T13:05:03.722Z,97228.13
2023-05-19T13:07:31.300Z,97222.06
2023-05-19T13:09:58.857Z,97227.25
2023-05-19T13:12:26.369Z,97219.19
2023-05-19T13:14:55.643Z,97229.88
2023-05-19T13:17:24.871Z,97227.38
2023-05-19T13:19:52.942Z,97223.66
2023-05-19T13:22:20.634Z,97207.97
2023-05-19T13:24:48.201Z,97212.78
2023-05-19T13:27:15.998Z,97206.56
2023-05-19T13:29:43.669Z,97219.72
2023-05-19T13:32:11.187Z,97208.03
2023-05-19T13:34:40.130Z,97196.28
2023-05-19T13:37:10.003Z,97206.31
2023-05-19T13:39:37.770Z,97205.53
2023-05-19T13:42:06.284Z,97198.81
2023-05-19T13:44:33.946Z,97202.56
2023-05-19T13:47:01.549Z,97201.91
2023-05-19T13:49:29.147Z,97204.78
2023-05-19T13:51:59.862Z,97205.47
2023-05-19T13:54:27.710Z,97199.88
2023-05-19T13:56:55.330Z,97206.19
2023-05-19T13:59:22.900Z,97200.63
2023-05-19T14:01:50.660Z,97196.25
2023-05-19T14:04:19.747Z,97205.00
2023-05-19T14:06:47.528Z,97184.78
2023-05-19T14:09:16.596Z,97204.19
2023-05-19T14:11:44.228Z,97188.09
2023-05-19T14:14:11.800Z,97205.25
2023-05-19T14:16:39.544Z,97200.72
2023-05-19T14:19:07.186Z,97195.28
2023-05-19T14:21:34.986Z,97188.97
2023-05-19T14:24:02.574Z,97167.69
2023-05-19T14:26:31.630Z,97194.00
2023-05-19T14:28:59.358Z,97195.59
2023-05-19T14:31:27.272Z,97193.88
2023-05-19T14:33:55.688Z,97191.13
2023-05-19T14:36:23.263Z,97195.22
2023-05-19T14:38:50.882Z,97192.41
2023-05-19T14:41:18.414Z,97192.28
2023-05-19T14:43:48.809Z,97184.66
2023-05-19T14:46:16.487Z,97185.09
2023-05-19T14:48:44.085Z,97182.63
2023-05-19T14:51:11.682Z,97172.06
2023-05-19T14:53:39.270Z,97188.59
2023-05-19T14:56:08.118Z,97186.50
2023-05-19T14:58:35.700Z,97189.41
2023-05-19T15:01:04.904Z,97187.44
2023-05-19T15:03:32.559Z,97186.16
2023-05-19T15:06:00.207Z,97169.88
2023-05-19T15:08:27.750Z,97162.44
2023-05-19T15:10:55.377Z,97174.25
2023-05-19T15:13:22.958Z,97189.63
2023-05-19T15:15:58.915Z,97193.47
2023-05-19T15:18:34.163Z,97195.69
2023-05-19T15:21:01.734Z,97181.63
2023-05-19T15:23:29.424Z,97196.09
2023-05-19T15:25:57.033Z,97182.59
2023-05-19T15:28:24.612Z,97180.00
2023-05-19T15:30:52.246Z,97190.09
2023-05-19T15:33:19.877Z,97191.16
2023-05-19T15:35:51.541Z,97192.91
2023-05-19T15:38:19.880Z,97189.31
2023-05-19T15:40:47.654Z,97190.78
2023-05-19T15:43:15.243Z,97184.09
2023-05-19T15:45:42.807Z,97185.81
2023-05-19T15:48:10.473Z,97180.97
2023-05-19T15:50:38.274Z,97187.13
2023-05-19T15:53:08.280Z,97197.09
2023-05-19T15:55:35.814Z,97196.56
2023-05-19T15:58:03.370Z,97193.94
2023-05-19T16:00:31.047Z,97191.25
2023-05-19T16:02:58.893Z,97180.88
2023-05-19T16:05:26.642Z,97199.63
2023-05-19T16:07:54.197Z,97195.56
2023-05-19T16:10:23.124Z,97196.94
2023-05-19T16:12:50.660Z,97189.94
2023-05-19T16:15:18.256Z,97188.94
2023-05-19T16:17:45.856Z,97180.78
2023-05-19T16:20:13.826Z,97186.13
2023-05-19T16:22:41.478Z,97186.13
2023-05-19T16:25:09.523Z,97192.34
2023-05-19T16:27:38.385Z,97189.53
2023-05-19T16:30:07.131Z,97185.69
2023-05-19T16:32:34.728Z,97189.44
2023-05-19T16:35:02.466Z,97189.03
2023-05-19T16:37:30.057Z,97184.94
2023-05-19T16:39:57.603Z,97186.38
2023-05-19T16:42:25.247Z,97183.69
2023-05-19T16:44:54.237Z,97178.44
2023-05-19T16:47:21.805Z,97191.56
2023-05-19T16:49:49.388Z,97181.09
2023-05-19T16:52:16.937Z,97180.28
2023-05-19T16:54:44.588Z,97181.31
2023-05-19T16:57:14.660Z,97182.66
2023-05-19T16:59:42.408Z,97176.72
2023-05-19T17:02:11.351Z,97176.41
2023-05-19T17:04:39.029Z,97172.63
2023-05-19T17:07:06.626Z,97172.22
2023-05-19T17:09:34.286Z,97181.09
2023-05-19T17:12:01.951Z,97169.72
2023-05-19T17:14:29.572Z,97179.16
2023-05-19T17:16:57.188Z,97173.66
2023-05-19T17:19:26.315Z,97169.84
2023-05-19T17:21:54.233Z,97147.91
2023-05-19T17:24:21.826Z,97167.13
2023-05-19T17:26:49.396Z,97139.00
2023-05-19T17:29:17.034Z,97136.00
2023-05-19T17:31:44.626Z,97172.88
2023-05-19T17:34:12.236Z,97170.06
2023-05-19T17:36:41.119Z,97183.31
2023-05-19T17:39:08.788Z,97185.63
2023-05-19T17:41:36.411Z,97179.56
2023-05-19T17:44:04.100Z,97184.59
2023-05-19T17:46:34.633Z,97186.47
2023-05-19T17:49:02.315Z,97184.25
2023-05-19T17:51:30.528Z,97186.56
2023-05-19T17:53:59.935Z,97191.06
2023-05-19T17:56:27.986Z,97193.56
2023-05-19T17:58:55.978Z,97183.16
2023-05-19T18:01:25.720Z,97188.75
2023-05-19T18:03:53.940Z,97189.72
2023-05-19T18:06:21.853Z,97185.06
2023-05-19T18:08:51.583Z,97193.47
2023-05-19T18:11:21.303Z,97193.28
2023-05-19T18:13:48.893Z,97189.41
2023-05-19T18:16:16.709Z,97193.50
2023-05-19T18:18:46.949Z,97185.31
2023-05-19T18:21:17.723Z,97192.47
2023-05-19T18:23:45.709Z,97188.41
2023-05-19T18:26:14.186Z,97188.63
2023-05-19T18:28:43.408Z,97190.84
2023-05-19T18:31:17.311Z,97182.28
2023-05-19T18:33:45.281Z,97182.25
2023-05-19T18:36:13.470Z,97180.00
2023-05-19T18:38:41.568Z,97189.84
2023-05-19T18:41:09.378Z,97182.03
2023-05-19T18:43:37.016Z,97179.56
2023-05-19T18:46:06.091Z,97180.81
2023-05-19T18:48:34.220Z,97160.69
2023-05-19T18:51:03.636Z,97183.28
2023-05-19T18:53:32.162Z,97184.06
2023-05-19T18:55:59.718Z,97181.84
2023-05-19T18:58:27.326Z,97190.63
2023-05-19T19:00:55.706Z,97198.22
2023-05-19T19:03:24.805Z,97191.06
2023-05-19T19:05:56.053Z,97188.38
2023-05-19T19:08:23.759Z,97191.63
2023-05-19T19:10:51.784Z,97184.03
2023-05-19T19:13:19.537Z,97194.53
2023-05-19T19:15:47.115Z,97194.31
2023-05-19T19:18:14.721Z,97180.56
2023-05-19T19:20:43.625Z,97191.81
2023-05-19T19:23:11.200Z,97186.06
2023-05-19T19:25:38.951Z,97193.25
2023-05-19T19:28:06.789Z,97193.66
2023-05-19T19:30:34.596Z,97186.25
2023-05-19T19:33:03.105Z,97191.59
2023-05-19T19:35:32.191Z,97197.94
2023-05-19T19:38:01.245Z,97192.19
2023-05-19T19:40:29.290Z,97194.41
2023-05-19T19:42:56.876Z,97190.72
2023-05-19T19:45:24.448Z,97200.09
2023-05-19T19:47:52.588Z,97196.81
2023-05-19T19:50:20.718Z,97200.28
2023-05-19T19:52:48.325Z,97205.56
2023-05-19T19:55:17.389Z,97203.47
2023-05-19T19:57:49.078Z,97216.78
2023-05-19T20:00:17.340Z,97183.34
2023-05-19T20:03:02.851Z,97211.44
2023-05-19T20:05:32.190Z,97203.28
2023-05-19T20:07:59.905Z,97204.09
2023-05-19T20:10:29.069Z,97203.69
2023-05-19T20:12:58.764Z,97201.44
2023-05-19T20:15:26.703Z,97196.91
2023-05-19T20:17:54.312Z,97209.41
2023-05-19T20:20:22.363Z,97178.84
2023-05-19T20:22:50.006Z,97199.19
2023-05-19T20:25:17.548Z,97205.31
2023-05-19T20:27:46.439Z,97209.41
2023-05-19T20:30:14.019Z,97208.41
2023-05-19T20:32:41.646Z,97204.53
2023-05-19T20:35:09.679Z,97205.97
2023-05-19T20:37:37.361Z,97197.56
2023-05-19T20:40:06.270Z,97170.69
2023-05-19T20:42:33.879Z,97194.66
2023-05-19T20:45:02.797Z,97202.84
2023-05-19T20:47:30.636Z,97187.88
2023-05-19T20:49:58.760Z,97191.56
2023-05-19T20:52:26.937Z,97190.53
2023-05-19T20:54:54.541Z,97190.34
2023-05-19T20:57:22.117Z,97189.13
2023-05-19T20:59:49.784Z,97188.31
2023-05-19T21:02:18.730Z,97192.38
2023-05-19T21:04:46.852Z,97186.50
2023-05-19T21:07:14.527Z,97195.72
2023-05-19T21:09:42.739Z,97187.75
2023-05-19T21:12:10.522Z,97186.50
2023-05-19T21:14:38.084Z,97187.75
2023-05-19T21:17:07.153Z,97184.84
2023-05-19T21:19:37.613Z,97183.97
2023-05-19T21:22:05.766Z,97182.13
2023-05-19T21:24:33.358Z,97155.03
2023-05-19T21:27:00.944Z,97195.63
2023-05-19T21:29:28.570Z,97192.78
2023-05-19T21:31:58.894Z,97186.00
2023-05-19T21:34:26.473Z,97191.72
2023-05-19T21:36:55.357Z,97197.03
2023-05-19T21:39:22.984Z,97194.38
2023-05-19T21:41:51.257Z,97194.00
2023-05-19T21:44:18.850Z,97194.44
2023-05-19T21:46:46.611Z,97166.53
2023-05-19T21:49:14.195Z,97192.44
2023-05-19T21:51:41.757Z,97196.91
2023-05-19T21:54:10.711Z,97188.31
2023-05-19T21:56:38.496Z,97153.63
2023-05-19T21:59:06.059Z,97190.34
2023-05-19T22:01:33.779Z,97184.59
2023-05-19T22:04:01.475Z,97191.56
2023-05-19T22:06:29.073Z,97187.88
2023-05-19T22:08:58.065Z,97193.00
2023-05-19T22:11:27.011Z,97189.34
2023-05-19T22:13:55.170Z,97186.50
2023-05-19T22:16:22.910Z,97178.69
2023-05-19T22:18:50.552Z,97179.75
2023-05-19T22:21:18.185Z,97181.81
2023-05-19T22:23:45.980Z,97182.44
2023-05-19T22:26:13.629Z,97156.81
2023-05-19T22:28:42.866Z,97179.53
2023-05-19T22:31:10.446Z,97170.38
2023-05-19T22:33:38.003Z,97172.59
2023-05-19T22:36:05.768Z,97178.97
2023-05-19T22:38:33.333Z,97173.03
2023-05-19T22:41:01.261Z,97174.22
2023-05-19T22:43:28.848Z,97176.09
2023-05-19T22:45:57.786Z,97167.31
2023-05-19T22:48:25.723Z,97158.50
2023-05-19T22:50:53.310Z,97153.19
2023-05-19T22:53:20.905Z,97160.53
2023-05-19T22:55:48.518Z,97154.41
2023-05-19T22:58:16.079Z,97155.03
2023-05-19T23:00:43.613Z,97164.66
2023-05-19T23:03:12.588Z,97156.69
2023-05-19T23:05:40.914Z,97158.91
2023-05-19T23:08:08.497Z,97162.56
2023-05-19T23:10:36.071Z,97146.84
2023-05-19T23:13:03.628Z,97151.13
2023-05-19T23:15:31.258Z,97151.53
2023-05-19T23:17:59.067Z,97157.03
2023-05-19T23:20:27.999Z,97154.38
2023-05-19T23:22:55.616Z,97151.31
2023-05-19T23:25:23.238Z,97150.91
2023-05-19T23:27:50.833Z,97142.09
2023-05-19T23:30:18.490Z,97148.00
2023-05-19T23:32:46.122Z,97143.72
2023-05-19T23:35:14.983Z,97151.69
2023-05-19T23:37:43.969Z,97144.09
2023-05-19T23:40:12.420Z,97144.50
2023-05-19T23:42:40.487Z,97141.03
2023-05-19T23:45:09.286Z,97146.13
2023-05-19T23:47:36.974Z,97140.38
2023-05-19T23:50:04.933Z,97149.38
2023-05-19T23:52:32.693Z,97143.59
2023-05-19T23:55:03.260Z,97143.38
2023-05-19T23:57:30.858Z,97142.50
2023-05-19T23:59:58.431Z,97132.03
